sensor_id;sensor_type;location;lat;lon;timestamp;P1;durP1;ratioP1;P2;durP2;ratioP2
18340;SDS011;9296;48.084;16.352;2022-11-14T00:00:46;74.75;;;29.13;;
18340;SDS011;9296;48.084;16.352;2022-11-14T00:03:14;72.78;;;29.60;;
18340;SDS011;9296;48.084;16.352;2022-11-14T00:05:41;78.72;;;30.15;;
18340;SDS011;9296;48.084;16.352;2022-11-14T00:08:13;72.97;;;30.33;;
18340;SDS011;9296;48.084;16.352;2022-11-14T00:10:40;73.28;;;29.52;;
18340;SDS011;9296;48.084;16.352;2022-11-14T00:13:08;71.18;;;28.77;;
18340;SDS011;9296;48.084;16.352;2022-11-14T00:15:35;75.55;;;31.45;;
18340;SDS011;9296;48.084;16.352;2022-11-14T00:18:04;73.10;;;31.00;;
18340;SDS011;9296;48.084;16.352;2022-11-14T00:20:31;76.72;;;30.70;;
18340;SDS011;9296;48.084;16.352;2022-11-14T00:22:58;74.68;;;29.88;;
18340;SDS011;9296;48.084;16.352;2022-11-14T00:28:29;80.50;;;30.80;;
18340;SDS011;9296;48.084;16.352;2022-11-14T00:30:56;79.40;;;30.90;;
18340;SDS011;9296;48.084;16.352;2022-11-14T00:33:25;85.40;;;31.95;;
18340;SDS011;9296;48.084;16.352;2022-11-14T00:35:52;77.93;;;31.42;;
18340;SDS011;9296;48.084;16.352;2022-11-14T00:38:20;79.20;;;30.85;;
18340;SDS011;9296;48.084;16.352;2022-11-14T00:40:48;80.40;;;31.77;;
18340;SDS011;9296;48.084;16.352;2022-11-14T00:43:15;77.30;;;31.48;;
18340;SDS011;9296;48.084;16.352;2022-11-14T00:45:43;75.13;;;31.17;;
18340;SDS011;9296;48.084;16.352;2022-11-14T00:48:10;76.80;;;31.60;;
18340;SDS011;9296;48.084;16.352;2022-11-14T00:50:39;72.38;;;31.63;;
18340;SDS011;9296;48.084;16.352;2022-11-14T00:53:06;71.07;;;30.85;;
18340;SDS011;9296;48.084;16.352;2022-11-14T00:58:47;71.25;;;30.67;;
18340;SDS011;9296;48.084;16.352;2022-11-14T01:01:14;74.65;;;30.88;;
18340;SDS011;9296;48.084;16.352;2022-11-14T01:03:41;70.00;;;30.17;;
18340;SDS011;9296;48.084;16.352;2022-11-14T01:06:10;73.30;;;31.38;;
18340;SDS011;9296;48.084;16.352;2022-11-14T01:08:39;67.55;;;29.70;;
18340;SDS011;9296;48.084;16.352;2022-11-14T01:11:08;70.07;;;30.80;;
18340;SDS011;9296;48.084;16.352;2022-11-14T01:13:36;68.32;;;30.50;;
18340;SDS011;9296;48.084;16.352;2022-11-14T01:16:03;68.47;;;29.55;;
18340;SDS011;9296;48.084;16.352;2022-11-14T01:18:31;70.97;;;31.33;;
18340;SDS011;9296;48.084;16.352;2022-11-14T01:20:58;73.15;;;31.30;;
18340;SDS011;9296;48.084;16.352;2022-11-14T01:23:27;64.05;;;30.40;;
18340;SDS011;9296;48.084;16.352;2022-11-14T01:28:57;67.25;;;30.13;;
18340;SDS011;9296;48.084;16.352;2022-11-14T01:31:25;72.65;;;32.55;;
18340;SDS011;9296;48.084;16.352;2022-11-14T01:33:52;64.80;;;30.55;;
18340;SDS011;9296;48.084;16.352;2022-11-14T01:36:19;68.22;;;31.58;;
18340;SDS011;9296;48.084;16.352;2022-11-14T01:38:51;64.45;;;30.83;;
18340;SDS011;9296;48.084;16.352;2022-11-14T01:41:19;64.30;;;30.30;;
18340;SDS011;9296;48.084;16.352;2022-11-14T01:43:46;67.05;;;31.60;;
18340;SDS011;9296;48.084;16.352;2022-11-14T01:46:14;67.38;;;31.58;;
18340;SDS011;9296;48.084;16.352;2022-11-14T01:48:45;70.35;;;31.88;;
18340;SDS011;9296;48.084;16.352;2022-11-14T01:51:15;62.17;;;29.40;;
18340;SDS011;9296;48.084;16.352;2022-11-14T01:53:44;59.20;;;29.88;;
18340;SDS011;9296;48.084;16.352;2022-11-14T01:56:13;62.33;;;29.85;;
18340;SDS011;9296;48.084;16.352;2022-11-14T01:58:43;61.08;;;30.10;;
18340;SDS011;9296;48.084;16.352;2022-11-14T02:01:10;59.20;;;28.98;;
18340;SDS011;9296;48.084;16.352;2022-11-14T02:03:38;60.00;;;29.00;;
18340;SDS011;9296;48.084;16.352;2022-11-14T02:06:06;61.00;;;30.38;;
18340;SDS011;9296;48.084;16.352;2022-11-14T02:08:35;60.08;;;29.17;;
18340;SDS011;9296;48.084;16.352;2022-11-14T02:14:07;59.75;;;29.15;;
18340;SDS011;9296;48.084;16.352;2022-11-14T02:16:34;64.47;;;30.38;;
18340;SDS011;9296;48.084;16.352;2022-11-14T02:19:02;57.88;;;28.30;;
18340;SDS011;9296;48.084;16.352;2022-11-14T02:21:32;57.97;;;29.33;;
18340;SDS011;9296;48.084;16.352;2022-11-14T02:24:00;60.50;;;30.02;;
18340;SDS011;9296;48.084;16.352;2022-11-14T02:26:27;61.75;;;29.50;;
18340;SDS011;9296;48.084;16.352;2022-11-14T02:28:54;59.42;;;28.90;;
18340;SDS011;9296;48.084;16.352;2022-11-14T02:31:21;58.08;;;28.23;;
18340;SDS011;9296;48.084;16.352;2022-11-14T02:33:49;57.03;;;29.25;;
18340;SDS011;9296;48.084;16.352;2022-11-14T02:36:16;55.47;;;28.27;;
18340;SDS011;9296;48.084;16.352;2022-11-14T02:38:44;58.97;;;28.38;;
18340;SDS011;9296;48.084;16.352;2022-11-14T02:44:15;55.50;;;28.10;;
18340;SDS011;9296;48.084;16.352;2022-11-14T02:46:43;57.72;;;27.73;;
18340;SDS011;9296;48.084;16.352;2022-11-14T02:49:10;57.95;;;27.95;;
18340;SDS011;9296;48.084;16.352;2022-11-14T02:51:37;56.53;;;27.77;;
18340;SDS011;9296;48.084;16.352;2022-11-14T02:57:02;57.72;;;28.67;;
18340;SDS011;9296;48.084;16.352;2022-11-14T02:59:29;58.38;;;28.52;;
18340;SDS011;9296;48.084;16.352;2022-11-14T03:01:56;62.85;;;29.52;;
18340;SDS011;9296;48.084;16.352;2022-11-14T03:04:24;56.08;;;28.17;;
18340;SDS011;9296;48.084;16.352;2022-11-14T03:06:51;56.58;;;27.90;;
18340;SDS011;9296;48.084;16.352;2022-11-14T03:09:19;61.33;;;28.23;;
18340;SDS011;9296;48.084;16.352;2022-11-14T03:11:46;54.28;;;27.83;;
18340;SDS011;9296;48.084;16.352;2022-11-14T03:14:15;54.40;;;27.70;;
18340;SDS011;9296;48.084;16.352;2022-11-14T03:16:42;51.28;;;26.92;;
18340;SDS011;9296;48.084;16.352;2022-11-14T03:19:10;55.47;;;27.20;;
18340;SDS011;9296;48.084;16.352;2022-11-14T03:21:37;55.03;;;27.85;;
18340;SDS011;9296;48.084;16.352;2022-11-14T03:27:07;57.40;;;27.85;;
18340;SDS011;9296;48.084;16.352;2022-11-14T03:29:36;58.30;;;27.67;;
18340;SDS011;9296;48.084;16.352;2022-11-14T03:32:03;66.28;;;29.83;;
18340;SDS011;9296;48.084;16.352;2022-11-14T03:34:30;56.00;;;28.25;;
18340;SDS011;9296;48.084;16.352;2022-11-14T03:36:58;64.18;;;29.50;;
18340;SDS011;9296;48.084;16.352;2022-11-14T03:39:25;65.13;;;29.73;;
18340;SDS011;9296;48.084;16.352;2022-11-14T03:41:53;67.28;;;29.70;;
18340;SDS011;9296;48.084;16.352;2022-11-14T03:44:20;63.17;;;30.15;;
18340;SDS011;9296;48.084;16.352;2022-11-14T03:46:49;65.93;;;30.52;;
18340;SDS011;9296;48.084;16.352;2022-11-14T03:49:17;66.50;;;29.55;;
18340;SDS011;9296;48.084;16.352;2022-11-14T03:51:44;70.30;;;30.10;;
18340;SDS011;9296;48.084;16.352;2022-11-14T03:54:11;71.97;;;31.10;;
18340;SDS011;9296;48.084;16.352;2022-11-14T03:56:39;71.72;;;30.35;;
18340;SDS011;9296;48.084;16.352;2022-11-14T03:59:06;64.43;;;28.88;;
18340;SDS011;9296;48.084;16.352;2022-11-14T04:01:33;64.70;;;29.92;;
18340;SDS011;9296;48.084;16.352;2022-11-14T04:04:02;65.85;;;29.92;;
18340;SDS011;9296;48.084;16.352;2022-11-14T04:06:29;62.15;;;29.67;;
18340;SDS011;9296;48.084;16.352;2022-11-14T04:08:57;64.30;;;29.60;;
18340;SDS011;9296;48.084;16.352;2022-11-14T04:14:28;67.80;;;29.65;;
18340;SDS011;9296;48.084;16.352;2022-11-14T04:16:55;66.65;;;30.70;;
18340;SDS011;9296;48.084;16.352;2022-11-14T04:19:24;64.15;;;30.10;;
18340;SDS011;9296;48.084;16.352;2022-11-14T04:21:51;66.00;;;30.10;;
18340;SDS011;9296;48.084;16.352;2022-11-14T04:24:18;64.53;;;29.83;;
18340;SDS011;9296;48.084;16.352;2022-11-14T04:26:46;68.88;;;29.90;;
18340;SDS011;9296;48.084;16.352;2022-11-14T04:29:13;73.80;;;30.33;;
18340;SDS011;9296;48.084;16.352;2022-11-14T04:31:40;65.38;;;30.02;;
18340;SDS011;9296;48.084;16.352;2022-11-14T04:34:07;64.88;;;29.33;;
18340;SDS011;9296;48.084;16.352;2022-11-14T04:36:36;71.57;;;30.23;;
18340;SDS011;9296;48.084;16.352;2022-11-14T04:39:03;64.25;;;29.30;;
18340;SDS011;9296;48.084;16.352;2022-11-14T04:44:34;66.68;;;29.75;;
18340;SDS011;9296;48.084;16.352;2022-11-14T04:47:01;75.57;;;29.35;;
18340;SDS011;9296;48.084;16.352;2022-11-14T04:49:28;64.78;;;29.35;;
18340;SDS011;9296;48.084;16.352;2022-11-14T04:51:57;62.25;;;29.58;;
18340;SDS011;9296;48.084;16.352;2022-11-14T04:57:28;76.85;;;30.10;;
18340;SDS011;9296;48.084;16.352;2022-11-14T04:59:55;70.07;;;30.55;;
18340;SDS011;9296;48.084;16.352;2022-11-14T05:02:22;84.53;;;30.30;;
18340;SDS011;9296;48.084;16.352;2022-11-14T05:04:49;71.60;;;30.55;;
18340;SDS011;9296;48.084;16.352;2022-11-14T05:07:18;78.95;;;30.77;;
18340;SDS011;9296;48.084;16.352;2022-11-14T05:09:48;73.15;;;31.40;;
18340;SDS011;9296;48.084;16.352;2022-11-14T05:12:17;75.15;;;30.02;;
18340;SDS011;9296;48.084;16.352;2022-11-14T05:14:44;71.80;;;31.35;;
18340;SDS011;9296;48.084;16.352;2022-11-14T05:17:11;80.13;;;29.90;;
18340;SDS011;9296;48.084;16.352;2022-11-14T05:19:39;95.95;;;31.95;;
18340;SDS011;9296;48.084;16.352;2022-11-14T05:22:06;87.35;;;32.10;;
18340;SDS011;9296;48.084;16.352;2022-11-14T05:24:34;87.68;;;31.95;;
18340;SDS011;9296;48.084;16.352;2022-11-14T05:27:02;70.80;;;30.05;;
18340;SDS011;9296;48.084;16.352;2022-11-14T05:29:29;78.93;;;32.00;;
18340;SDS011;9296;48.084;16.352;2022-11-14T05:31:56;90.05;;;32.65;;
18340;SDS011;9296;48.084;16.352;2022-11-14T05:34:24;75.93;;;31.02;;
18340;SDS011;9296;48.084;16.352;2022-11-14T05:36:51;85.78;;;33.78;;
18340;SDS011;9296;48.084;16.352;2022-11-14T05:39:19;75.40;;;32.00;;
18340;SDS011;9296;48.084;16.352;2022-11-14T05:44:51;84.60;;;38.13;;
18340;SDS011;9296;48.084;16.352;2022-11-14T05:47:19;82.53;;;36.42;;
18340;SDS011;9296;48.084;16.352;2022-11-14T05:49:46;74.72;;;32.72;;
18340;SDS011;9296;48.084;16.352;2022-11-14T05:52:13;76.07;;;33.05;;
18340;SDS011;9296;48.084;16.352;2022-11-14T06:00:48;91.70;;;33.90;;
18340;SDS011;9296;48.084;16.352;2022-11-14T06:03:15;96.10;;;35.05;;
18340;SDS011;9296;48.084;16.352;2022-11-14T06:05:42;95.30;;;36.00;;
18340;SDS011;9296;48.084;16.352;2022-11-14T06:08:10;102.22;;;35.33;;
18340;SDS011;9296;48.084;16.352;2022-11-14T06:13:41;91.40;;;33.78;;
18340;SDS011;9296;48.084;16.352;2022-11-14T06:16:10;95.32;;;34.72;;
18340;SDS011;9296;48.084;16.352;2022-11-14T06:18:38;91.30;;;34.58;;
18340;SDS011;9296;48.084;16.352;2022-11-14T06:21:06;95.90;;;34.92;;
18340;SDS011;9296;48.084;16.352;2022-11-14T06:23:34;90.63;;;34.40;;
18340;SDS011;9296;48.084;16.352;2022-11-14T06:26:02;91.00;;;32.97;;
18340;SDS011;9296;48.084;16.352;2022-11-14T06:28:30;87.05;;;34.08;;
18340;SDS011;9296;48.084;16.352;2022-11-14T06:30:57;93.00;;;34.97;;
18340;SDS011;9296;48.084;16.352;2022-11-14T06:33:26;94.45;;;34.25;;
18340;SDS011;9296;48.084;16.352;2022-11-14T06:35:57;98.97;;;33.35;;
18340;SDS011;9296;48.084;16.352;2022-11-14T06:38:25;99.70;;;35.63;;
18340;SDS011;9296;48.084;16.352;2022-11-14T06:40:59;91.78;;;33.60;;
18340;SDS011;9296;48.084;16.352;2022-11-14T06:43:27;93.93;;;33.92;;
18340;SDS011;9296;48.084;16.352;2022-11-14T06:45:54;88.38;;;34.60;;
18340;SDS011;9296;48.084;16.352;2022-11-14T06:48:22;85.43;;;33.25;;
18340;SDS011;9296;48.084;16.352;2022-11-14T06:50:51;90.10;;;34.13;;
18340;SDS011;9296;48.084;16.352;2022-11-14T06:53:19;92.53;;;34.35;;
18340;SDS011;9296;48.084;16.352;2022-11-14T06:58:50;78.03;;;32.35;;
18340;SDS011;9296;48.084;16.352;2022-11-14T07:01:18;82.88;;;33.05;;
18340;SDS011;9296;48.084;16.352;2022-11-14T07:03:45;91.60;;;34.83;;
18340;SDS011;9296;48.084;16.352;2022-11-14T07:06:15;79.85;;;33.30;;
18340;SDS011;9296;48.084;16.352;2022-11-14T07:08:43;83.93;;;34.72;;
18340;SDS011;9296;48.084;16.352;2022-11-14T07:14:14;75.47;;;31.85;;
18340;SDS011;9296;48.084;16.352;2022-11-14T07:16:41;71.95;;;33.15;;
18340;SDS011;9296;48.084;16.352;2022-11-14T07:19:08;73.40;;;32.72;;
18340;SDS011;9296;48.084;16.352;2022-11-14T07:21:38;72.38;;;31.92;;
18340;SDS011;9296;48.084;16.352;2022-11-14T07:24:05;67.80;;;32.03;;
18340;SDS011;9296;48.084;16.352;2022-11-14T07:26:32;72.55;;;32.70;;
18340;SDS011;9296;48.084;16.352;2022-11-14T07:29:00;70.03;;;32.55;;
18340;SDS011;9296;48.084;16.352;2022-11-14T07:31:27;73.63;;;33.00;;
18340;SDS011;9296;48.084;16.352;2022-11-14T07:33:54;72.00;;;31.58;;
18340;SDS011;9296;48.084;16.352;2022-11-14T07:36:22;65.65;;;31.63;;
18340;SDS011;9296;48.084;16.352;2022-11-14T07:39:04;62.05;;;31.42;;
18340;SDS011;9296;48.084;16.352;2022-11-14T07:41:31;69.22;;;31.58;;
18340;SDS011;9296;48.084;16.352;2022-11-14T07:43:59;66.28;;;31.73;;
18340;SDS011;9296;48.084;16.352;2022-11-14T07:46:26;69.30;;;31.17;;
18340;SDS011;9296;48.084;16.352;2022-11-14T07:48:53;64.10;;;31.38;;
18340;SDS011;9296;48.084;16.352;2022-11-14T07:51:21;63.88;;;31.88;;
18340;SDS011;9296;48.084;16.352;2022-11-14T07:53:50;64.70;;;31.17;;
18340;SDS011;9296;48.084;16.352;2022-11-14T07:56:19;67.13;;;32.65;;
18340;SDS011;9296;48.084;16.352;2022-11-14T07:58:46;62.53;;;32.08;;
18340;SDS011;9296;48.084;16.352;2022-11-14T08:01:13;63.45;;;32.33;;
18340;SDS011;9296;48.084;16.352;2022-11-14T08:03:40;67.53;;;33.03;;
18340;SDS011;9296;48.084;16.352;2022-11-14T08:06:09;63.28;;;32.22;;
18340;SDS011;9296;48.084;16.352;2022-11-14T08:08:36;70.82;;;35.45;;
18340;SDS011;9296;48.084;16.352;2022-11-14T08:11:04;65.10;;;31.95;;
18340;SDS011;9296;48.084;16.352;2022-11-14T08:13:33;72.63;;;35.22;;
18340;SDS011;9296;48.084;16.352;2022-11-14T08:16:02;58.50;;;30.35;;
18340;SDS011;9296;48.084;16.352;2022-11-14T08:18:30;54.17;;;30.25;;
18340;SDS011;9296;48.084;16.352;2022-11-14T08:20:57;52.78;;;29.98;;
18340;SDS011;9296;48.084;16.352;2022-11-14T08:23:24;52.67;;;28.58;;
18340;SDS011;9296;48.084;16.352;2022-11-14T08:25:52;51.55;;;30.08;;
18340;SDS011;9296;48.084;16.352;2022-11-14T08:28:19;54.25;;;30.00;;
18340;SDS011;9296;48.084;16.352;2022-11-14T08:30:47;65.07;;;37.03;;
18340;SDS011;9296;48.084;16.352;2022-11-14T08:33:15;53.42;;;29.90;;
18340;SDS011;9296;48.084;16.352;2022-11-14T08:35:42;52.42;;;30.02;;
18340;SDS011;9296;48.084;16.352;2022-11-14T08:38:09;54.55;;;28.92;;
18340;SDS011;9296;48.084;16.352;2022-11-14T08:46:45;56.70;;;30.27;;
18340;SDS011;9296;48.084;16.352;2022-11-14T08:49:12;53.20;;;29.75;;
18340;SDS011;9296;48.084;16.352;2022-11-14T08:51:39;53.40;;;31.30;;
18340;SDS011;9296;48.084;16.352;2022-11-14T08:54:07;52.00;;;29.10;;
18340;SDS011;9296;48.084;16.352;2022-11-14T08:56:34;52.20;;;28.38;;
18340;SDS011;9296;48.084;16.352;2022-11-14T08:59:01;42.92;;;26.23;;
18340;SDS011;9296;48.084;16.352;2022-11-14T09:01:29;43.55;;;25.92;;
18340;SDS011;9296;48.084;16.352;2022-11-14T09:03:58;41.85;;;25.65;;
18340;SDS011;9296;48.084;16.352;2022-11-14T09:06:25;39.10;;;24.30;;
18340;SDS011;9296;48.084;16.352;2022-11-14T09:08:52;39.25;;;25.73;;
18340;SDS011;9296;48.084;16.352;2022-11-14T09:14:32;37.25;;;24.90;;
18340;SDS011;9296;48.084;16.352;2022-11-14T09:16:59;34.58;;;23.42;;
18340;SDS011;9296;48.084;16.352;2022-11-14T09:19:28;34.08;;;22.38;;
18340;SDS011;9296;48.084;16.352;2022-11-14T09:21:55;31.58;;;22.80;;
18340;SDS011;9296;48.084;16.352;2022-11-14T09:24:22;28.83;;;20.40;;
18340;SDS011;9296;48.084;16.352;2022-11-14T09:26:50;28.23;;;19.40;;
18340;SDS011;9296;48.084;16.352;2022-11-14T09:29:17;24.90;;;18.08;;
18340;SDS011;9296;48.084;16.352;2022-11-14T09:31:44;25.17;;;18.73;;
18340;SDS011;9296;48.084;16.352;2022-11-14T09:34:11;26.48;;;18.83;;
18340;SDS011;9296;48.084;16.352;2022-11-14T09:36:40;31.05;;;22.35;;
18340;SDS011;9296;48.084;16.352;2022-11-14T09:39:07;32.60;;;21.88;;
18340;SDS011;9296;48.084;16.352;2022-11-14T09:41:38;33.35;;;23.00;;
18340;SDS011;9296;48.084;16.352;2022-11-14T09:44:21;34.22;;;24.65;;
18340;SDS011;9296;48.084;16.352;2022-11-14T09:46:52;40.90;;;25.80;;
18340;SDS011;9296;48.084;16.352;2022-11-14T09:49:23;30.90;;;22.83;;
18340;SDS011;9296;48.084;16.352;2022-11-14T09:51:53;50.00;;;31.02;;
18340;SDS011;9296;48.084;16.352;2022-11-14T09:54:25;36.50;;;25.15;;
18340;SDS011;9296;48.084;16.352;2022-11-14T09:56:52;45.92;;;27.90;;
18340;SDS011;9296;48.084;16.352;2022-11-14T09:59:20;37.85;;;25.80;;
18340;SDS011;9296;48.084;16.352;2022-11-14T10:01:48;44.28;;;28.88;;
18340;SDS011;9296;48.084;16.352;2022-11-14T10:04:19;41.42;;;27.63;;
18340;SDS011;9296;48.084;16.352;2022-11-14T10:06:52;34.42;;;24.40;;
18340;SDS011;9296;48.084;16.352;2022-11-14T10:09:27;31.83;;;23.90;;
18340;SDS011;9296;48.084;16.352;2022-11-14T10:12:02;32.33;;;23.70;;
18340;SDS011;9296;48.084;16.352;2022-11-14T10:17:23;30.92;;;22.88;;
18340;SDS011;9296;48.084;16.352;2022-11-14T10:19:58;30.50;;;22.65;;
18340;SDS011;9296;48.084;16.352;2022-11-14T10:22:35;31.80;;;22.67;;
18340;SDS011;9296;48.084;16.352;2022-11-14T10:25:14;24.92;;;18.95;;
18340;SDS011;9296;48.084;16.352;2022-11-14T10:27:48;24.75;;;17.60;;
18340;SDS011;9296;48.084;16.352;2022-11-14T10:30:18;24.83;;;16.95;;
18340;SDS011;9296;48.084;16.352;2022-11-14T10:32:59;27.60;;;17.40;;
18340;SDS011;9296;48.084;16.352;2022-11-14T10:35:33;23.13;;;17.33;;
18340;SDS011;9296;48.084;16.352;2022-11-14T10:38:03;23.58;;;17.00;;
18340;SDS011;9296;48.084;16.352;2022-11-14T10:46:43;24.95;;;16.58;;
18340;SDS011;9296;48.084;16.352;2022-11-14T10:49:12;27.40;;;17.55;;
18340;SDS011;9296;48.084;16.352;2022-11-14T10:51:42;25.40;;;17.23;;
18340;SDS011;9296;48.084;16.352;2022-11-14T10:54:12;26.67;;;18.23;;
18340;SDS011;9296;48.084;16.352;2022-11-14T10:56:47;25.58;;;17.70;;
18340;SDS011;9296;48.084;16.352;2022-11-14T10:59:14;26.35;;;18.02;;
18340;SDS011;9296;48.084;16.352;2022-11-14T11:01:44;28.27;;;18.05;;
18340;SDS011;9296;48.084;16.352;2022-11-14T11:04:13;29.15;;;19.17;;
18340;SDS011;9296;48.084;16.352;2022-11-14T11:06:40;28.45;;;17.88;;
18340;SDS011;9296;48.084;16.352;2022-11-14T11:09:08;29.23;;;18.60;;
18340;SDS011;9296;48.084;16.352;2022-11-14T11:11:56;29.10;;;18.60;;
18340;SDS011;9296;48.084;16.352;2022-11-14T11:14:25;29.83;;;19.38;;
18340;SDS011;9296;48.084;16.352;2022-11-14T11:17:07;28.15;;;19.52;;
18340;SDS011;9296;48.084;16.352;2022-11-14T11:19:41;29.77;;;18.90;;
18340;SDS011;9296;48.084;16.352;2022-11-14T11:22:22;30.77;;;19.25;;
18340;SDS011;9296;48.084;16.352;2022-11-14T11:24:50;27.98;;;18.33;;
18340;SDS011;9296;48.084;16.352;2022-11-14T11:27:19;28.20;;;19.05;;
18340;SDS011;9296;48.084;16.352;2022-11-14T11:29:49;30.10;;;18.73;;
18340;SDS011;9296;48.084;16.352;2022-11-14T11:32:28;31.02;;;19.35;;
18340;SDS011;9296;48.084;16.352;2022-11-14T11:34:55;30.60;;;20.20;;
18340;SDS011;9296;48.084;16.352;2022-11-14T11:37:24;34.75;;;20.80;;
18340;SDS011;9296;48.084;16.352;2022-11-14T11:39:53;35.95;;;21.42;;
18340;SDS011;9296;48.084;16.352;2022-11-14T11:45:25;33.65;;;20.55;;
18340;SDS011;9296;48.084;16.352;2022-11-14T11:47:56;39.97;;;23.27;;
18340;SDS011;9296;48.084;16.352;2022-11-14T11:50:24;36.47;;;21.67;;
18340;SDS011;9296;48.084;16.352;2022-11-14T11:52:57;38.53;;;22.50;;
18340;SDS011;9296;48.084;16.352;2022-11-14T11:55:28;36.75;;;21.25;;
18340;SDS011;9296;48.084;16.352;2022-11-14T12:01:00;37.40;;;21.58;;
18340;SDS011;9296;48.084;16.352;2022-11-14T12:03:29;39.30;;;22.77;;
18340;SDS011;9296;48.084;16.352;2022-11-14T12:05:58;37.38;;;22.38;;
18340;SDS011;9296;48.084;16.352;2022-11-14T12:08:30;38.97;;;21.92;;
18340;SDS011;9296;48.084;16.352;2022-11-14T12:17:18;39.70;;;22.45;;
18340;SDS011;9296;48.084;16.352;2022-11-14T12:19:53;38.47;;;21.88;;
18340;SDS011;9296;48.084;16.352;2022-11-14T12:22:27;41.15;;;23.70;;
18340;SDS011;9296;48.084;16.352;2022-11-14T12:28:01;42.05;;;23.23;;
18340;SDS011;9296;48.084;16.352;2022-11-14T12:30:31;41.60;;;24.13;;
18340;SDS011;9296;48.084;16.352;2022-11-14T12:32:59;43.13;;;24.27;;
18340;SDS011;9296;48.084;16.352;2022-11-14T12:35:30;42.28;;;23.73;;
18340;SDS011;9296;48.084;16.352;2022-11-14T12:38:00;44.55;;;24.90;;
18340;SDS011;9296;48.084;16.352;2022-11-14T12:40:29;42.40;;;24.35;;
18340;SDS011;9296;48.084;16.352;2022-11-14T12:43:23;48.67;;;25.67;;
18340;SDS011;9296;48.084;16.352;2022-11-14T12:45:57;42.22;;;24.77;;
18340;SDS011;9296;48.084;16.352;2022-11-14T12:48:31;46.35;;;25.83;;
18340;SDS011;9296;48.084;16.352;2022-11-14T12:51:01;46.47;;;25.23;;
18340;SDS011;9296;48.084;16.352;2022-11-14T13:05:17;50.42;;;26.60;;
18340;SDS011;9296;48.084;16.352;2022-11-14T13:07:53;45.42;;;26.25;;
18340;SDS011;9296;48.084;16.352;2022-11-14T13:10:25;46.95;;;25.90;;
18340;SDS011;9296;48.084;16.352;2022-11-14T13:15:58;47.17;;;26.90;;
18340;SDS011;9296;48.084;16.352;2022-11-14T13:18:50;48.88;;;26.77;;
18340;SDS011;9296;48.084;16.352;2022-11-14T13:21:37;50.38;;;27.80;;
18340;SDS011;9296;48.084;16.352;2022-11-14T13:24:15;48.90;;;26.60;;
18340;SDS011;9296;48.084;16.352;2022-11-14T13:38:32;46.78;;;26.30;;
18340;SDS011;9296;48.084;16.352;2022-11-14T13:41:07;52.20;;;26.52;;
18340;SDS011;9296;48.084;16.352;2022-11-14T13:47:02;50.83;;;26.42;;
18340;SDS011;9296;48.084;16.352;2022-11-14T13:49:35;50.20;;;27.33;;
18340;SDS011;9296;48.084;16.352;2022-11-14T13:52:05;53.55;;;27.77;;
18340;SDS011;9296;48.084;16.352;2022-11-14T13:54:33;53.25;;;28.15;;
18340;SDS011;9296;48.084;16.352;2022-11-14T13:57:04;51.10;;;28.48;;
18340;SDS011;9296;48.084;16.352;2022-11-14T13:59:45;52.47;;;28.55;;
18340;SDS011;9296;48.084;16.352;2022-11-14T14:02:19;51.83;;;27.77;;
18340;SDS011;9296;48.084;16.352;2022-11-14T14:04:51;53.30;;;28.13;;
18340;SDS011;9296;48.084;16.352;2022-11-14T14:07:23;55.00;;;28.75;;
18340;SDS011;9296;48.084;16.352;2022-11-14T14:09:56;52.90;;;28.40;;
18340;SDS011;9296;48.084;16.352;2022-11-14T14:12:31;53.15;;;28.80;;
18340;SDS011;9296;48.084;16.352;2022-11-14T14:15:06;54.05;;;29.10;;
18340;SDS011;9296;48.084;16.352;2022-11-14T14:17:37;59.28;;;29.75;;
18340;SDS011;9296;48.084;16.352;2022-11-14T14:20:12;57.70;;;29.30;;
18340;SDS011;9296;48.084;16.352;2022-11-14T14:22:44;56.25;;;29.17;;
18340;SDS011;9296;48.084;16.352;2022-11-14T14:25:15;57.67;;;29.40;;
18340;SDS011;9296;48.084;16.352;2022-11-14T14:27:51;60.67;;;30.27;;
18340;SDS011;9296;48.084;16.352;2022-11-14T14:30:21;61.85;;;30.60;;
18340;SDS011;9296;48.084;16.352;2022-11-14T14:33:01;58.78;;;30.27;;
18340;SDS011;9296;48.084;16.352;2022-11-14T14:35:30;61.90;;;31.30;;
18340;SDS011;9296;48.084;16.352;2022-11-14T14:37:57;62.00;;;30.08;;
18340;SDS011;9296;48.084;16.352;2022-11-14T14:40:25;65.47;;;31.52;;
18340;SDS011;9296;48.084;16.352;2022-11-14T14:45:58;72.38;;;33.00;;
18340;SDS011;9296;48.084;16.352;2022-11-14T14:48:26;69.30;;;35.72;;
18340;SDS011;9296;48.084;16.352;2022-11-14T14:50:55;87.95;;;45.65;;
18340;SDS011;9296;48.084;16.352;2022-11-14T14:53:24;116.40;;;53.63;;
18340;SDS011;9296;48.084;16.352;2022-11-14T14:56:06;72.07;;;33.90;;
18340;SDS011;9296;48.084;16.352;2022-11-14T15:02:16;65.32;;;34.72;;
18340;SDS011;9296;48.084;16.352;2022-11-14T15:04:54;62.78;;;33.53;;
18340;SDS011;9296;48.084;16.352;2022-11-14T15:07:25;65.03;;;32.40;;
18340;SDS011;9296;48.084;16.352;2022-11-14T15:09:54;64.70;;;33.05;;
18340;SDS011;9296;48.084;16.352;2022-11-14T15:12:21;59.80;;;31.02;;
18340;SDS011;9296;48.084;16.352;2022-11-14T15:14:49;60.33;;;31.13;;
18340;SDS011;9296;48.084;16.352;2022-11-14T15:17:19;58.15;;;32.53;;
18340;SDS011;9296;48.084;16.352;2022-11-14T15:19:48;59.78;;;31.67;;
18340;SDS011;9296;48.084;16.352;2022-11-14T15:22:21;62.05;;;31.92;;
18340;SDS011;9296;48.084;16.352;2022-11-14T15:27:46;64.15;;;32.75;;
18340;SDS011;9296;48.084;16.352;2022-11-14T15:30:21;59.70;;;34.03;;
18340;SDS011;9296;48.084;16.352;2022-11-14T15:32:51;65.88;;;33.97;;
18340;SDS011;9296;48.084;16.352;2022-11-14T15:35:26;63.85;;;34.30;;
18340;SDS011;9296;48.084;16.352;2022-11-14T15:38:00;68.93;;;35.17;;
18340;SDS011;9296;48.084;16.352;2022-11-14T15:40:28;67.47;;;34.95;;
18340;SDS011;9296;48.084;16.352;2022-11-14T15:42:56;67.00;;;34.75;;
18340;SDS011;9296;48.084;16.352;2022-11-14T15:45:25;98.28;;;41.88;;
18340;SDS011;9296;48.084;16.352;2022-11-14T15:47:57;104.82;;;43.80;;
18340;SDS011;9296;48.084;16.352;2022-11-14T15:50:28;92.05;;;39.30;;
18340;SDS011;9296;48.084;16.352;2022-11-14T15:52:57;73.85;;;35.72;;
18340;SDS011;9296;48.084;16.352;2022-11-14T15:55:25;73.88;;;35.33;;
18340;SDS011;9296;48.084;16.352;2022-11-14T16:00:44;70.90;;;33.67;;
18340;SDS011;9296;48.084;16.352;2022-11-14T16:03:15;69.63;;;33.38;;
18340;SDS011;9296;48.084;16.352;2022-11-14T16:05:43;65.22;;;32.42;;
18340;SDS011;9296;48.084;16.352;2022-11-14T16:08:11;63.35;;;31.17;;
18340;SDS011;9296;48.084;16.352;2022-11-14T16:10:38;71.00;;;33.15;;
18340;SDS011;9296;48.084;16.352;2022-11-14T16:13:06;63.70;;;32.20;;
18340;SDS011;9296;48.084;16.352;2022-11-14T16:15:35;67.32;;;34.05;;
18340;SDS011;9296;48.084;16.352;2022-11-14T16:18:03;63.45;;;31.95;;
18340;SDS011;9296;48.084;16.352;2022-11-14T16:20:32;58.10;;;31.02;;
18340;SDS011;9296;48.084;16.352;2022-11-14T16:23:02;62.88;;;32.17;;
18340;SDS011;9296;48.084;16.352;2022-11-14T16:25:30;65.75;;;32.63;;
18340;SDS011;9296;48.084;16.352;2022-11-14T16:27:57;66.32;;;31.88;;
18340;SDS011;9296;48.084;16.352;2022-11-14T16:30:25;65.43;;;31.90;;
18340;SDS011;9296;48.084;16.352;2022-11-14T16:32:52;63.50;;;31.23;;
18340;SDS011;9296;48.084;16.352;2022-11-14T16:35:19;62.47;;;31.65;;
18340;SDS011;9296;48.084;16.352;2022-11-14T16:37:48;64.25;;;32.08;;